KYIP/YIP METAR and TAF weather

Enter ICAO airport designator
Station Type Date Time Source
KYIP METAR 2020/01/23 14:53 UTC NOAA

KYIP 231453Z 00000KT 9SM CLR M01/M06 A3020 RMK AO2 SLP233 T10111056 56004


Station Type Date Time Source
KYIP Decoded METAR 2020/01/23 14:53 UTC NOAA

WILLOW RUN AIRPORT, MI, United States (KYIP) 42-14N 083-32W 215M
Jan 23, 2020 - 09:53 AM EST / 2020.01.23 1453 UTC
Wind: Calm:0
Visibility: 9 mile(s):0
Sky conditions: clear
Temperature: 30.0 F (-1.1 C)
Dew Point: 21.9 F (-5.6 C)
Relative Humidity: 71%
Pressure (altimeter): 30.2 in. Hg (1022 hPa)
Pressure tendency: 0.01 inches (0.4 hPa) lower than three hours ago
ob: KYIP 231453Z 00000KT 9SM CLR M01/M06 A3020 RMK AO2 SLP233 T10111056 56004
cycle: 15

Station Type Date Time Source
KYIP TAF 2020/01/23 12:22 UTC NOAA

TAF KYIP 231120Z 2312/2412 14005KT P6SM OVC180
FM231800 16007KT P6SM OVC120
FM240000 12005KT P6SM OVC080
FM240800 09005KT P6SM VCSH OVC050

Example: see airport list